Portada
METAR-TAF:

METAR-TAF

Aeroports :

Benarés, Índia

latitud: 25-27N, longitud: 082-52E, altitud: 81 m

Observació

L'informe es va fer fa 21 minuts, a les 12:00 UTC
Vent 10 kt del Oest
Temperatura 39°C
Humitat 21%
Pressió 1004 hPa
Visibilitat: 5000 m
calitja

METAR: VEBN 191200Z 27010KT 5000 HZ NSC 39/13 Q1004 NOSIG

Hora: 17:51 (12:21 UTC)

Pronòstic

Pronòstic vàlid del 19 a les 12 UTC al 19 a les 21 UTC
Vent 8 kt del Oest
Visibilitat: 5000 m
calitja
Evolucionant progressivament
l' 19 a les 16 UTC al 19 a les 18 UTC
Vent 5 kt del Nord-Oest
Visibilitat: 4000 m
calitja

TAF: VEBN 1912/1921 28008KT 5000 HZ NSC BECMG 1916/1918 32005KT 4000 HZ NSC

Observacions i pronòstics meteorològics de més de 4000 aeroports (METAR i TAF).

Les estacions disponibles són els punts grocs i vermells al mapa.

Posi el ratolí al punt desitjat per veure el nom de l'estació.

Feu clic per veure les observacions i els pronòstics meteorològics.

Per canviar el mapa: feu clic els botons verds amb una creu de color negre per apropar; al botó verd amb un guió per allunyar la imatge; o en les fletxes verdes per a mapes adjacents.


METAR-TAF: